River Elbe — 3FWL6 — position and weather

sailwx.info

Track history (hours):
 
Tides and Currents Weather Stations Pressure Air Temp Water Temp Dewpoint Dewpoint Depression Visibility Wind Speed Wind Dir Waves Ship Positions

River Elbe

Last reported at 2017-Sep-16 01:33 UTC. Time now 2017-Sep-21 16:20 UTC.
Position N 40°47' E 027°38'.

Length 89 m; draft 5.4 m.

Type: Cargo ship. MMSI: 351895000.

Date/timePositionNaut miles runAvg speedWind from/ knotsBaromVisibWave heightAir tempDewpointWater temp
2017-Sep-16 01:33N 40°47' E 027°38'0 7.8
2017-Sep-16 01:30N 40°47' E 027°39'4 7.7
2017-Sep-16 01:00N 40°48' E 027°44'4 7.3
2017-Sep-16 00:30N 40°48' E 027°49'4 7.4
2017-Sep-16 00:00N 40°49' E 027°53'4 7.4
2017-Sep-15 23:30N 40°49' E 027°58'63 3.4
2017-Sep-15 05:01N 41°31' E 029°00'0 7.6
2017-Sep-15 04:57N 41°32' E 029°00'10 7.8
2017-Sep-15 03:39N 41°41' E 028°55'2 8.0
2017-Sep-15 03:25N 41°43' E 028°54'3 8.1
2017-Sep-15 03:00N 41°46' E 028°52'5 8.2
2017-Sep-15 02:20N 41°51' E 028°49'9 8.6
2017-Sep-15 01:17N 41°59' E 028°43'2 8.8
2017-Sep-15 01:00N 42°01' E 028°42'4 8.8
2017-Sep-15 00:30N 42°05' E 028°39'4 8.7
2017-Sep-15 00:00N 42°09' E 028°37'4 8.7
2017-Sep-14 23:30N 42°13' E 028°34'4 8.7
2017-Sep-14 23:00N 42°17' E 028°31'4 8.7
2017-Sep-14 22:30N 42°21' E 028°29'4 8.5
2017-Sep-14 22:00N 42°24' E 028°26'5 8.3
2017-Sep-14 21:27N 42°28' E 028°23'4 8.1
2017-Sep-14 21:00N 42°32' E 028°21'4 7.9
2017-Sep-14 20:30N 42°35' E 028°19'4 7.8
2017-Sep-14 20:00N 42°39' E 028°17'4 7.8
2017-Sep-14 19:30N 42°42' E 028°14'5 7.7
2017-Sep-14 18:53N 42°47' E 028°11'3 7.9
2017-Sep-14 18:30N 42°49' E 028°09'4 8.0
2017-Sep-14 18:00N 42°53' E 028°07'4 8.0
2017-Sep-14 17:30N 42°56' E 028°05'11 7.8
2017-Sep-14 16:02N 43°07' E 027°59'0 7.6
2017-Sep-14 16:00N 43°07' E 027°59'  
2017-Sep-12 04:36N 41°59' E 028°46'1 9.0
2017-Sep-12 04:29N 41°58' E 028°47'5 9.0
2017-Sep-12 03:59N 41°54' E 028°50'6 9.0
2017-Sep-12 03:20N 41°49' E 028°53'3 9.1
2017-Sep-12 03:00N 41°46' E 028°55'5 9.2
2017-Sep-12 02:30N 41°42' E 028°58'5 9.2
2017-Sep-12 01:59N 41°38' E 029°01'4 9.2
2017-Sep-12 01:30N 41°34' E 029°04'5 9.0
2017-Sep-12 00:58N 41°29' E 029°07'4 9.3
2017-Sep-12 00:30N 41°26' E 029°09'5 9.6
2017-Sep-12 00:00N 41°21' E 029°11'4 8.8
2017-Sep-11 23:30N 41°17' E 029°10'19 8.3
2017-Sep-11 21:13N 40°59' E 028°60'1 6.8
2017-Sep-11 21:00N 40°58' E 028°60'3 5.2
2017-Sep-11 20:30N 40°55' E 028°59'3 5.6
2017-Sep-11 19:59N 40°57' E 028°56'2 0.4
2017-Sep-11 14:19N 40°58' E 028°54'0 0.0
2017-Sep-11 12:13N 40°58' E 028°54'0 0.1
2017-Sep-11 11:55N 40°58' E 028°54'0 0.0
2017-Sep-11 06:12N 40°58' E 028°54'1 0.6
2017-Sep-11 04:56N 40°58' E 028°55'5 8.2
2017-Sep-11 04:17N 40°53' E 028°53'3 7.9
2017-Sep-11 03:54N 40°51' E 028°50'68 9.1
2017-Sep-10 20:23N 40°37' E 027°22'5 9.1
2017-Sep-10 19:50N 40°35' E 027°16'5 9.2
2017-Sep-10 19:17N 40°33' E 027°09'3 9.4
2017-Sep-10 19:00N 40°32' E 027°06'11 9.5
2017-Sep-10 17:49N 40°28' E 026°53'3 9.2
2017-Sep-10 17:30N 40°27' E 026°49'5 9.3
2017-Sep-10 17:00N 40°25' E 026°44'368 7.3
2017-Sep-08 14:45N 35°13' E 030°50'2 8.3
2017-Sep-08 14:27N 35°11' E 030°53'4 8.4
2017-Sep-08 14:00N 35°09' E 030°57'4 8.6
2017-Sep-08 13:30N 35°07' E 031°01'4 8.8
2017-Sep-08 13:00N 35°05' E 031°06'4 9.0
2017-Sep-08 12:30N 35°02' E 031°10'5 9.0
2017-Sep-08 12:00N 34°60' E 031°15'5 9.2
2017-Sep-08 11:30N 34°57' E 031°20'5 9.3
2017-Sep-08 11:00N 34°55' E 031°24'5 9.3
2017-Sep-08 10:28N 34°52' E 031°29'4 9.3
2017-Sep-08 10:00N 34°49' E 031°34'5 9.2
2017-Sep-08 09:30N 34°47' E 031°39'10 9.2
2017-Sep-08 08:27N 34°42' E 031°48'7 9.2
2017-Sep-08 07:43N 34°37' E 031°55'2 9.1
2017-Sep-08 07:28N 34°36' E 031°57'29 8.9
2017-Sep-08 04:12N 34°19' E 032°26'4 8.8
2017-Sep-08 03:45N 34°16' E 032°30'  
Track history (hours):
 
Tides and Currents Weather Stations Pressure Air Temp Water Temp Dewpoint Dewpoint Depression Visibility Wind Speed Wind Dir Waves Ship Positions

River Elbe

Last reported at 2017-Sep-16 01:33 UTC. Time now 2017-Sep-21 16:20 UTC.
Position N 40°47' E 027°38'.

Length 89 m; draft 5.4 m.

Type: Cargo ship. MMSI: 351895000.

Date/timePositionNaut miles runAvg speedWind from/ knotsBaromVisibWave heightAir tempDewpointWater temp
2017-Sep-16 01:33N 40°47' E 027°38'0 7.8
2017-Sep-16 01:30N 40°47' E 027°39'4 7.7
2017-Sep-16 01:00N 40°48' E 027°44'4 7.3
2017-Sep-16 00:30N 40°48' E 027°49'4 7.4
2017-Sep-16 00:00N 40°49' E 027°53'4 7.4
2017-Sep-15 23:30N 40°49' E 027°58'63 3.4
2017-Sep-15 05:01N 41°31' E 029°00'0 7.6
2017-Sep-15 04:57N 41°32' E 029°00'10 7.8
2017-Sep-15 03:39N 41°41' E 028°55'2 8.0
2017-Sep-15 03:25N 41°43' E 028°54'3 8.1
2017-Sep-15 03:00N 41°46' E 028°52'5 8.2
2017-Sep-15 02:20N 41°51' E 028°49'9 8.6
2017-Sep-15 01:17N 41°59' E 028°43'2 8.8
2017-Sep-15 01:00N 42°01' E 028°42'4 8.8
2017-Sep-15 00:30N 42°05' E 028°39'4 8.7
2017-Sep-15 00:00N 42°09' E 028°37'4 8.7
2017-Sep-14 23:30N 42°13' E 028°34'4 8.7
2017-Sep-14 23:00N 42°17' E 028°31'4 8.7
2017-Sep-14 22:30N 42°21' E 028°29'4 8.5
2017-Sep-14 22:00N 42°24' E 028°26'5 8.3
2017-Sep-14 21:27N 42°28' E 028°23'4 8.1
2017-Sep-14 21:00N 42°32' E 028°21'4 7.9
2017-Sep-14 20:30N 42°35' E 028°19'4 7.8
2017-Sep-14 20:00N 42°39' E 028°17'4 7.8
2017-Sep-14 19:30N 42°42' E 028°14'5 7.7
2017-Sep-14 18:53N 42°47' E 028°11'3 7.9
2017-Sep-14 18:30N 42°49' E 028°09'4 8.0
2017-Sep-14 18:00N 42°53' E 028°07'4 8.0
2017-Sep-14 17:30N 42°56' E 028°05'11 7.8
2017-Sep-14 16:02N 43°07' E 027°59'0 7.6
2017-Sep-14 16:00N 43°07' E 027°59'  
2017-Sep-12 04:36N 41°59' E 028°46'1 9.0
2017-Sep-12 04:29N 41°58' E 028°47'5 9.0
2017-Sep-12 03:59N 41°54' E 028°50'6 9.0
2017-Sep-12 03:20N 41°49' E 028°53'3 9.1
2017-Sep-12 03:00N 41°46' E 028°55'5 9.2
2017-Sep-12 02:30N 41°42' E 028°58'5 9.2
2017-Sep-12 01:59N 41°38' E 029°01'4 9.2
2017-Sep-12 01:30N 41°34' E 029°04'5 9.0
2017-Sep-12 00:58N 41°29' E 029°07'4 9.3
2017-Sep-12 00:30N 41°26' E 029°09'5 9.6
2017-Sep-12 00:00N 41°21' E 029°11'4 8.8
2017-Sep-11 23:30N 41°17' E 029°10'19 8.3
2017-Sep-11 21:13N 40°59' E 028°60'1 6.8
2017-Sep-11 21:00N 40°58' E 028°60'3 5.2
2017-Sep-11 20:30N 40°55' E 028°59'3 5.6
2017-Sep-11 19:59N 40°57' E 028°56'2 0.4
2017-Sep-11 14:19N 40°58' E 028°54'0 0.0
2017-Sep-11 12:13N 40°58' E 028°54'0 0.1
2017-Sep-11 11:55N 40°58' E 028°54'0 0.0
2017-Sep-11 06:12N 40°58' E 028°54'1 0.6
2017-Sep-11 04:56N 40°58' E 028°55'5 8.2
2017-Sep-11 04:17N 40°53' E 028°53'3 7.9
2017-Sep-11 03:54N 40°51' E 028°50'68 9.1
2017-Sep-10 20:23N 40°37' E 027°22'5 9.1
2017-Sep-10 19:50N 40°35' E 027°16'5 9.2
2017-Sep-10 19:17N 40°33' E 027°09'3 9.4
2017-Sep-10 19:00N 40°32' E 027°06'11 9.5
2017-Sep-10 17:49N 40°28' E 026°53'3 9.2
2017-Sep-10 17:30N 40°27' E 026°49'5 9.3
2017-Sep-10 17:00N 40°25' E 026°44'368 7.3
2017-Sep-08 14:45N 35°13' E 030°50'2 8.3
2017-Sep-08 14:27N 35°11' E 030°53'4 8.4
2017-Sep-08 14:00N 35°09' E 030°57'4 8.6
2017-Sep-08 13:30N 35°07' E 031°01'4 8.8
2017-Sep-08 13:00N 35°05' E 031°06'4 9.0
2017-Sep-08 12:30N 35°02' E 031°10'5 9.0
2017-Sep-08 12:00N 34°60' E 031°15'5 9.2
2017-Sep-08 11:30N 34°57' E 031°20'5 9.3
2017-Sep-08 11:00N 34°55' E 031°24'5 9.3
2017-Sep-08 10:28N 34°52' E 031°29'4 9.3
2017-Sep-08 10:00N 34°49' E 031°34'5 9.2
2017-Sep-08 09:30N 34°47' E 031°39'10 9.2
2017-Sep-08 08:27N 34°42' E 031°48'7 9.2
2017-Sep-08 07:43N 34°37' E 031°55'2 9.1
2017-Sep-08 07:28N 34°36' E 031°57'29 8.9
2017-Sep-08 04:12N 34°19' E 032°26'4 8.8
2017-Sep-08 03:45N 34°16' E 032°30'  

Dump ship's entire track history